Time;durP1;ratioP1;P1;durP2;ratioP2;P2;SDS_P1;SDS_P2;PMS_P1;PMS_P2;Temp;Humidity;BMP_temperature;BMP_pressure;BME280_temperature;BME280_humidity;BME280_pressure;Samples;Min_cycle;Max_cycle;Signal;HPM_P1;HPM_P2
2022/12/21 00:00:08;;;;;;;;;;;;;;;4.53;50.74;99977.44;5034582;28;19920;-79
2022/12/21 00:02:34;;;;;;;;;;;;;;;4.52;50.67;99983.53;5034451;28;19917;-79
2022/12/21 00:04:59;;;;;;;;;;;;;;;4.51;50.76;99973.25;5052384;28;19916;-79
2022/12/21 00:07:25;;;;;;;;;;;;;;;4.50;50.85;99982.72;5034387;28;19917;-79
2022/12/21 00:09:50;;;;;;;;;;;;;;;4.49;50.79;99978.47;5034712;28;19991;-79
2022/12/21 00:12:15;;;;;;;;;;;;;;;4.49;50.90;99978.47;5052032;28;19921;-78
2022/12/21 00:14:41;;;;;;;;;;;;;;;4.47;50.61;99982.81;5052361;28;20394;-79
2022/12/21 00:17:06;;;;;;;;;;;;;;;4.47;50.78;99975.06;5034398;28;19998;-79
2022/12/21 00:19:31;;;;;;;;;;;;;;;4.46;50.92;99967.34;5052251;28;19923;-80
2022/12/21 00:21:56;;;;;;;;;;;;;;;4.46;50.96;99975.97;5033521;28;19924;-80
2022/12/21 00:24:22;;;;;;;;;;;;;;;4.46;50.98;99977.69;5051727;28;20276;-81
2022/12/21 00:26:47;;;;;;;;;;;;;;;4.44;50.86;99975.16;5034147;28;19917;-80
2022/12/21 00:29:12;;;;;;;;;;;;;;;4.44;50.97;99972.56;5034203;28;19917;-78
2022/12/21 00:31:39;;;;;;;;;;;;;;;4.44;50.82;99963.97;5034077;28;19920;-79
2022/12/21 00:34:04;;;;;;;;;;;;;;;4.42;50.89;99969.19;5017859;28;20380;-79
2022/12/21 00:36:29;;;;;;;;;;;;;;;4.42;50.76;99965.78;5034887;28;20000;-78
2022/12/21 00:38:55;;;;;;;;;;;;;;;4.42;50.67;99965.78;5038302;28;20398;-78
2022/12/21 00:41:21;;;;;;;;;;;;;;;4.40;51.04;99958.06;5056007;28;20067;-79
2022/12/21 00:43:46;;;;;;;;;;;;;;;4.40;50.84;99963.22;5021542;28;20012;-78
2022/12/21 00:46:21;;;;;;;;;;;;;;;4.38;50.97;99952.09;5055799;28;19990;-78
2022/12/21 00:48:47;;;;;;;;;;;;;;;4.37;50.84;99955.56;5055910;28;20344;-79
2022/12/21 00:51:16;;;;;;;;;;;;;;;4.36;50.88;99946.13;5037886;28;19975;-78
2022/12/21 00:53:42;;;;;;;;;;;;;;;4.34;50.81;99937.56;5038017;28;19921;-78
2022/12/21 00:56:07;;;;;;;;;;;;;;;4.33;50.82;99941.91;5037791;28;19924;-79
2022/12/21 00:58:33;;;;;;;;;;;;;;;4.33;50.98;99933.28;5038043;28;19916;-79
2022/12/21 01:00:59;;;;;;;;;;;;;;;4.30;50.87;99934.25;5038189;28;20339;-79
2022/12/21 01:03:24;;;;;;;;;;;;;;;4.29;51.37;99940.28;5037865;28;19924;-79
2022/12/21 01:05:50;;;;;;;;;;;;;;;4.28;50.88;99935.16;5055183;28;19917;-79
2022/12/21 01:08:16;;;;;;;;;;;;;;;4.27;50.95;99926.59;5020991;28;19960;-79
2022/12/21 01:10:41;;;;;;;;;;;;;;;4.26;50.76;99924.03;5037549;28;19917;-78
2022/12/21 01:13:06;;;;;;;;;;;;;;;4.25;50.66;99923.19;5021081;28;20363;-78
2022/12/21 01:15:32;;;;;;;;;;;;;;;4.23;50.77;99921.56;5037889;28;19983;-78
2022/12/21 01:17:57;;;;;;;;;;;;;;;4.22;50.83;99914.69;5037806;28;19916;-78
2022/12/21 01:20:22;;;;;;;;;;;;;;;4.21;50.96;99911.25;5038022;28;20309;-79
2022/12/21 01:22:47;;;;;;;;;;;;;;;4.20;50.91;99913.91;5055777;28;19959;-79
2022/12/21 01:25:13;;;;;;;;;;;;;;;4.19;50.90;99912.19;5055349;28;19916;-78
2022/12/21 01:27:38;;;;;;;;;;;;;;;4.18;50.99;99915.69;5037761;28;19921;-78
2022/12/21 01:30:04;;;;;;;;;;;;;;;4.18;50.84;99910.53;5055401;28;19988;-78
2022/12/21 01:32:29;;;;;;;;;;;;;;;4.19;50.74;99909.59;5037468;28;19975;-78
2022/12/21 01:34:56;;;;;;;;;;;;;;;4.16;50.84;99913.16;5037443;28;19960;-78
2022/12/21 01:37:22;;;;;;;;;;;;;;;4.14;50.76;99907.16;5037395;28;19936;-78
2022/12/21 01:39:47;;;;;;;;;;;;;;;4.14;50.97;99900.28;5054912;28;19921;-78
2022/12/21 01:42:13;;;;;;;;;;;;;;;4.14;51.01;99896.81;5055100;28;19982;-78
2022/12/21 01:45:02;;;;;;;;;;;;;;;4.13;51.16;99900.31;5020174;28;19921;-78
2022/12/21 01:47:32;;;;;;;;;;;;;;;4.12;50.99;99901.22;4993244;28;19924;-78
2022/12/21 01:49:59;;;;;;;;;;;;;;;4.11;50.78;99894.34;4977646;28;20326;-77
2022/12/21 01:52:25;;;;;;;;;;;;;;;4.10;51.14;99888.34;4960983;28;19922;-78
2022/12/21 01:54:51;;;;;;;;;;;;;;;4.10;51.02;99890.09;4977180;28;20057;-78
2022/12/21 01:57:16;;;;;;;;;;;;;;;4.10;50.96;99884.91;4977198;28;19961;-78
2022/12/21 01:59:43;;;;;;;;;;;;;;;4.07;50.90;99872.91;4976981;28;20364;-78
2022/12/21 02:02:13;;;;;;;;;;;;;;;4.06;51.06;99862.63;4960873;28;20384;-78
2022/12/21 02:04:38;;;;;;;;;;;;;;;4.06;51.04;99867.81;4977631;28;19961;-79
2022/12/21 02:07:04;;;;;;;;;;;;;;;4.07;50.93;99877.25;4993749;28;19918;-79
2022/12/21 02:09:30;;;;;;;;;;;;;;;4.05;50.82;99866.97;4993210;28;19925;-79
2022/12/21 02:11:55;;;;;;;;;;;;;;;4.05;50.85;99866.97;4976974;28;19925;-79
2022/12/21 02:14:21;;;;;;;;;;;;;;;4.04;50.95;99867.84;4977065;28;19918;-78
2022/12/21 02:16:58;;;;;;;;;;;;;;;4.04;50.95;99861.84;4996076;28;20274;-78
2022/12/21 02:20:01;;;;;;;;;;;;;;;4.02;51.19;99863.63;5012927;28;20072;-80
2022/12/21 02:22:50;;;;;;;;;;;;;;;4.02;50.99;99863.63;4973985;28;19925;-79
2022/12/21 02:25:15;;;;;;;;;;;;;;;4.01;51.29;99861.94;4976839;28;19976;-79
2022/12/21 02:27:40;;;;;;;;;;;;;;;3.99;51.07;99860.25;4992978;28;19964;-79
2022/12/21 02:30:24;;;;;;;;;;;;;;;3.96;50.77;99856.91;4992883;28;19929;-79
2022/12/21 02:32:55;;;;;;;;;;;;;;;3.95;50.93;99862.97;4976868;28;19922;-79
2022/12/21 02:35:39;;;;;;;;;;;;;;;3.93;50.90;99863.00;4960604;28;19976;-79
2022/12/21 02:38:26;;;;;;;;;;;;;;;3.93;50.95;99854.44;4975977;28;20295;-79
2022/12/21 02:41:04;;;;;;;;;;;;;;;3.91;51.09;99859.63;4960392;28;20400;-79
2022/12/21 02:46:27;;;;;;;;;;;;;;;3.89;51.20;99850.22;4978840;28;20013;-79
2022/12/21 02:49:05;;;;;;;;;;;;;;;3.87;51.08;99847.69;4960252;28;19918;-79
2022/12/21 02:51:36;;;;;;;;;;;;;;;3.86;51.31;99847.75;4976295;28;20444;-79
2022/12/21 02:54:02;;;;;;;;;;;;;;;3.85;51.06;99851.25;5027050;28;19975;-79
2022/12/21 02:56:27;;;;;;;;;;;;;;;3.83;51.21;99853.00;5033848;28;19918;-79
2022/12/21 02:58:52;;;;;;;;;;;;;;;3.83;51.17;99850.41;5033409;28;19940;-79
2022/12/21 03:01:40;;;;;;;;;;;;;;;3.80;51.13;99847.03;5033593;28;19983;-79
2022/12/21 03:04:14;;;;;;;;;;;;;;;3.78;51.14;99843.69;5033588;28;19963;-80
2022/12/21 03:06:42;;;;;;;;;;;;;;;3.76;51.25;99842.88;5033666;28;19921;-78
2022/12/21 03:09:07;;;;;;;;;;;;;;;3.76;51.15;99842.88;5015921;28;19921;-78
2022/12/21 03:11:53;;;;;;;;;;;;;;;3.75;51.33;99836.03;5033917;28;19917;-79
2022/12/21 03:14:36;;;;;;;;;;;;;;;3.74;51.44;99833.47;4972705;28;19925;-78
2022/12/21 03:17:17;;;;;;;;;;;;;;;3.72;51.53;99833.53;4972462;28;19970;-77
2022/12/21 03:19:51;;;;;;;;;;;;;;;3.72;51.25;99830.13;4956578;28;20417;-78
2022/12/21 03:22:39;;;;;;;;;;;;;;;3.71;51.46;99825.81;4972543;28;20427;-77
2022/12/21 03:25:07;;;;;;;;;;;;;;;3.70;51.39;99817.25;4915173;29;19919;-78
2022/12/21 03:27:34;;;;;;;;;;;;;;;3.68;51.46;99815.59;4915711;29;19979;-77
2022/12/21 03:30:01;;;;;;;;;;;;;;;3.68;51.48;99810.44;4915250;29;20062;-78
2022/12/21 03:32:52;;;;;;;;;;;;;;;3.65;51.40;99813.09;4915363;29;20016;-78
2022/12/21 03:35:22;;;;;;;;;;;;;;;3.63;51.24;99808.81;4927966;29;19929;-76
2022/12/21 03:37:49;;;;;;;;;;;;;;;3.61;51.35;99802.88;4917588;29;19978;-76
2022/12/21 03:40:17;;;;;;;;;;;;;;;3.61;51.55;99802.88;4918271;29;20017;-77
2022/12/21 03:42:51;;;;;;;;;;;;;;;3.61;51.38;99807.19;4902030;29;19922;-78
2022/12/21 03:45:17;;;;;;;;;;;;;;;3.59;51.39;99808.97;4917333;29;19965;-78
2022/12/21 03:47:48;;;;;;;;;;;;;;;3.59;51.43;99803.78;4900431;29;19922;-77
2022/12/21 03:50:17;;;;;;;;;;;;;;;3.57;51.58;99809.03;4917264;28;19921;-77
2022/12/21 03:53:01;;;;;;;;;;;;;;;3.56;51.60;99807.34;4956056;28;20425;-77
2022/12/21 03:55:27;;;;;;;;;;;;;;;3.56;51.44;99809.91;4971982;28;19922;-78
2022/12/21 03:57:53;;;;;;;;;;;;;;;3.56;51.57;99809.91;4955989;28;19986;-77
2022/12/21 04:00:18;;;;;;;;;;;;;;;3.55;51.62;99809.97;4955962;28;19918;-77
2022/12/21 04:02:57;;;;;;;;;;;;;;;3.55;51.27;99812.53;5018994;28;19921;-77
2022/12/21 04:05:26;;;;;;;;;;;;;;;3.54;51.45;99814.28;4998219;28;20295;-76
2022/12/21 04:07:51;;;;;;;;;;;;;;;3.52;51.67;99816.03;5015023;28;19917;-78
2022/12/21 04:10:17;;;;;;;;;;;;;;;3.54;51.48;99818.59;5032637;28;19917;-77
2022/12/21 04:12:43;;;;;;;;;;;;;;;3.55;51.55;99821.13;5015433;28;19917;-77
2022/12/21 04:15:09;;;;;;;;;;;;;;;3.54;51.57;99822.03;5014792;28;20033;-77
2022/12/21 04:17:34;;;;;;;;;;;;;;;3.54;51.43;99816.88;5014922;28;20342;-77
2022/12/21 04:20:02;;;;;;;;;;;;;;;3.54;51.57;99813.41;5014999;28;19925;-77
2022/12/21 04:28:07;;;;;;;;;;;;;;;3.53;51.45;99816.91;5017632;28;19924;-77
2022/12/21 04:30:42;;;;;;;;;;;;;;;3.52;51.53;99820.38;5032573;28;19917;-77
2022/12/21 04:33:08;;;;;;;;;;;;;;;3.51;51.37;99816.97;4998733;28;19924;-76
2022/12/21 04:35:33;;;;;;;;;;;;;;;3.52;51.69;99812.63;5014337;28;19917;-78
2022/12/21 04:37:58;;;;;;;;;;;;;;;3.50;51.54;99810.09;5015636;28;19925;-76
2022/12/21 04:40:24;;;;;;;;;;;;;;;3.50;51.21;99814.41;5014932;28;19921;-81
2022/12/21 04:42:49;;;;;;;;;;;;;;;3.50;51.58;99819.59;5032675;28;19948;-82
2022/12/21 04:45:14;;;;;;;;;;;;;;;3.49;51.39;99821.31;5015822;28;19921;-77
2022/12/21 04:47:40;;;;;;;;;;;;;;;3.84;69.02;99816.78;5052056;28;19916;-73
2022/12/21 04:50:05;;;;;;;;;;;;;;;4.76;76.78;99806.88;5052144;28;19920;-78
2022/12/21 04:52:31;;;;;;;;;;;;;;;4.77;74.02;99809.41;5052541;28;19921;-79
2022/12/21 04:54:56;;;;;;;;;;;;;;;5.33;77.69;99810.00;5017861;28;19947;-74
2022/12/21 04:57:21;;;;;;;;;;;;;;;5.20;71.74;99802.72;5052627;28;19947;-72
2022/12/21 04:59:47;;;;;;;;;;;;;;;5.26;69.59;99809.38;5055679;28;19973;-81
2022/12/21 05:02:12;;;;;;;;;;;;;;;5.67;76.01;99801.78;5037501;28;20376;-71
2022/12/21 05:04:37;;;;;;;;;;;;;;;5.65;69.42;99801.00;5052193;28;19968;-72
2022/12/21 05:07:03;;;;;;;;;;;;;;;5.72;66.69;99794.66;5018935;28;19917;-75
2022/12/21 05:09:28;;;;;;;;;;;;;;;5.80;62.20;99794.38;5052226;28;19921;-73
2022/12/21 05:11:54;;;;;;;;;;;;;;;5.60;61.25;99785.63;5017157;28;19917;-74
2022/12/21 05:14:19;;;;;;;;;;;;;;;5.44;60.18;99787.16;5034345;28;19921;-79
2022/12/21 05:16:45;;;;;;;;;;;;;;;5.55;68.51;99790.16;5051987;28;19917;-79
2022/12/21 05:19:10;;;;;;;;;;;;;;;5.46;60.87;99784.50;5052272;28;19916;-79
2022/12/21 05:21:36;;;;;;;;;;;;;;;5.33;60.18;99781.50;5033698;28;19921;-85
2022/12/21 05:24:01;;;;;;;;;;;;;;;5.15;59.00;99786.47;5054962;28;19952;-80
2022/12/21 05:26:26;;;;;;;;;;;;;;;4.94;59.09;99784.69;5055345;28;20402;-81
2022/12/21 05:28:51;;;;;;;;;;;;;;;4.73;59.38;99779.41;5037715;28;19921;-82
2022/12/21 05:31:17;;;;;;;;;;;;;;;4.57;58.85;99775.66;5021011;28;19923;-79
2022/12/21 05:33:42;;;;;;;;;;;;;;;4.43;59.27;99771.81;5055366;28;20355;-81
2022/12/21 05:36:08;;;;;;;;;;;;;;;4.32;59.39;99776.50;5037573;28;19924;-83
2022/12/21 05:38:34;;;;;;;;;;;;;;;4.23;59.75;99776.81;5037828;28;19921;-80
2022/12/21 05:40:59;;;;;;;;;;;;;;;4.12;59.58;99770.25;5055948;28;20392;-78
2022/12/21 05:43:24;;;;;;;;;;;;;;;4.03;59.44;99761.97;5055563;28;19966;-83
2022/12/21 05:45:50;;;;;;;;;;;;;;;3.97;59.47;99766.44;5038990;28;19924;-77
2022/12/21 05:48:16;;;;;;;;;;;;;;;3.92;59.58;99762.31;5020997;28;20387;-89
2022/12/21 05:50:41;;;;;;;;;;;;;;;3.87;59.46;99756.44;5037806;28;19963;-80
2022/12/21 05:53:07;;;;;;;;;;;;;;;3.91;59.03;99761.47;5037346;28;19970;-79
2022/12/21 05:55:32;;;;;;;;;;;;;;;4.12;58.49;99765.06;5055315;28;19982;-78
2022/12/21 05:57:57;;;;;;;;;;;;;;;4.39;57.96;99757.28;5055266;28;20318;-78
2022/12/21 06:00:23;;;;;;;;;;;;;;;4.74;57.30;99762.97;5055097;28;19917;-79
2022/12/21 06:02:48;;;;;;;;;;;;;;;5.12;57.01;99770.22;5019691;28;20118;-79
2022/12/21 06:05:13;;;;;;;;;;;;;;;5.54;55.40;99762.56;5037027;28;19921;-78
2022/12/21 06:07:38;;;;;;;;;;;;;;;6.00;54.34;99757.31;5036904;28;19928;-78
2022/12/21 06:10:04;;;;;;;;;;;;;;;6.55;53.43;99761.06;5054782;28;19923;-79
2022/12/21 06:12:29;;;;;;;;;;;;;;;7.15;51.88;99756.69;5036798;28;19952;-78
2022/12/21 06:14:55;;;;;;;;;;;;;;;7.79;50.18;99757.13;5054410;28;20344;-78
2022/12/21 06:17:20;;;;;;;;;;;;;;;8.53;48.21;99761.31;5020212;28;19917;-78
2022/12/21 06:19:45;;;;;;;;;;;;;;;9.31;46.67;99748.47;5054426;28;19917;-79
2022/12/21 06:22:11;;;;;;;;;;;;;;;10.09;44.85;99747.63;5036832;28;19967;-79
2022/12/21 06:24:36;;;;;;;;;;;;;;;10.79;43.33;99750.44;5054240;28;19921;-78
2022/12/21 06:27:01;;;;;;;;;;;;;;;11.47;41.63;99748.00;5036165;28;19924;-80
2022/12/21 06:29:26;;;;;;;;;;;;;;;12.03;39.90;99753.97;5036523;28;20412;-78
2022/12/21 06:31:52;;;;;;;;;;;;;;;12.52;39.33;99749.00;5054222;28;19923;-78
2022/12/21 06:34:17;;;;;;;;;;;;;;;12.92;38.36;99748.84;5053184;28;20000;-80
2022/12/21 06:36:42;;;;;;;;;;;;;;;13.15;38.03;99747.25;5036295;28;20315;-77
2022/12/21 06:39:08;;;;;;;;;;;;;;;13.28;37.57;99739.34;5036437;28;19924;-79
2022/12/21 06:41:33;;;;;;;;;;;;;;;13.38;37.78;99740.41;5035831;28;19916;-82
2022/12/21 06:43:58;;;;;;;;;;;;;;;13.50;36.79;99739.50;5019732;28;20007;-79
2022/12/21 06:46:24;;;;;;;;;;;;;;;13.63;36.08;99734.22;5035652;28;19917;-78
2022/12/21 06:48:49;;;;;;;;;;;;;;;13.76;35.58;99728.91;5036299;28;19921;-79
2022/12/21 06:51:15;;;;;;;;;;;;;;;13.92;35.40;99733.84;5019588;28;19945;-79
2022/12/21 06:53:41;;;;;;;;;;;;;;;14.14;34.43;99730.47;5036343;28;19925;-80
2022/12/21 06:56:07;;;;;;;;;;;;;;;14.33;33.80;99726.41;5036227;28;19925;-82
2022/12/21 06:58:34;;;;;;;;;;;;;;;14.53;33.02;99732.78;5053812;28;19917;-82
2022/12/21 07:01:15;;;;;;;;;;;;;;;14.68;32.66;99722.94;5053952;28;19921;-82
2022/12/21 07:03:41;;;;;;;;;;;;;;;14.84;31.79;99723.41;5036196;28;19921;-81
2022/12/21 07:06:06;;;;;;;;;;;;;;;14.95;31.39;99717.28;5053458;28;20028;-83
2022/12/21 07:08:31;;;;;;;;;;;;;;;15.07;30.85;99713.69;5053429;28;19917;-83
2022/12/21 07:10:57;;;;;;;;;;;;;;;15.23;30.42;99710.69;5053615;28;19916;-82
2022/12/21 07:13:24;;;;;;;;;;;;;;;15.41;29.95;99710.97;5053507;28;19917;-83
2022/12/21 07:15:49;;;;;;;;;;;;;;;15.63;29.55;99709.25;5053683;28;19928;-82
2022/12/21 07:18:14;;;;;;;;;;;;;;;15.95;29.09;99721.56;5053610;28;19917;-82
2022/12/21 07:20:39;;;;;;;;;;;;;;;16.22;28.30;99716.63;5035131;28;20103;-82
2022/12/21 07:23:05;;;;;;;;;;;;;;;16.51;27.89;99713.31;5053089;28;19916;-81
2022/12/21 07:25:30;;;;;;;;;;;;;;;16.65;27.49;99712.13;5035028;28;19923;-81
2022/12/21 07:27:56;;;;;;;;;;;;;;;16.78;26.92;99709.28;5053164;28;19920;-81
2022/12/21 07:30:21;;;;;;;;;;;;;;;16.99;26.89;99710.06;5035921;28;20346;-80
2022/12/21 07:32:47;;;;;;;;;;;;;;;17.11;26.56;99715.22;5053409;28;19916;-81
2022/12/21 07:35:12;;;;;;;;;;;;;;;17.26;26.57;99707.78;5034877;28;19917;-81
2022/12/21 07:37:37;;;;;;;;;;;;;;;17.41;26.15;99705.56;5052919;28;19921;-81
2022/12/21 07:40:04;;;;;;;;;;;;;;;17.58;25.84;99704.88;5053157;28;19923;-81
2022/12/21 07:42:30;;;;;;;;;;;;;;;17.82;25.60;99704.47;5053278;28;19924;-80
2022/12/21 07:44:55;;;;;;;;;;;;;;;18.04;25.35;99706.00;5052610;28;19917;-81
2022/12/21 07:47:20;;;;;;;;;;;;;;;18.21;24.92;99709.72;5052924;28;19956;-82
2022/12/21 07:49:46;;;;;;;;;;;;;;;18.38;24.44;99702.88;5053025;28;19917;-82
2022/12/21 07:52:11;;;;;;;;;;;;;;;18.47;24.28;99716.19;5053150;28;19928;-82
2022/12/21 07:54:36;;;;;;;;;;;;;;;18.56;24.19;99717.97;5053710;28;19920;-82
2022/12/21 07:57:02;;;;;;;;;;;;;;;18.66;23.91;99712.63;5052958;28;19940;-81
2022/12/21 07:59:27;;;;;;;;;;;;;;;18.76;23.82;99721.38;5035863;28;19917;-81
2022/12/21 08:01:52;;;;;;;;;;;;;;;18.88;23.95;99720.25;5052431;28;19998;-81
2022/12/21 08:04:18;;;;;;;;;;;;;;;19.02;23.89;99710.97;5052480;28;19916;-80
2022/12/21 08:06:45;;;;;;;;;;;;;;;19.13;23.63;99709.94;5052527;28;20368;-81
2022/12/21 08:09:10;;;;;;;;;;;;;;;19.25;23.32;99706.09;5052710;28;19983;-80
2022/12/21 08:11:35;;;;;;;;;;;;;;;19.40;23.23;99705.59;5052732;28;20373;-81
2022/12/21 08:14:00;;;;;;;;;;;;;;;19.53;23.02;99703.41;5052534;28;20007;-81
2022/12/21 08:16:26;;;;;;;;;;;;;;;19.71;22.74;99704.22;5052574;28;19923;-82
2022/12/21 08:18:51;;;;;;;;;;;;;;;19.89;22.51;99698.09;5052551;28;19967;-85
2022/12/21 08:21:16;;;;;;;;;;;;;;;20.03;22.31;99700.19;5035287;28;19916;-78
2022/12/21 08:23:42;;;;;;;;;;;;;;;20.15;21.72;99694.66;5053138;28;19917;-82
2022/12/21 08:26:08;;;;;;;;;;;;;;;20.28;21.66;99687.13;5018914;28;19924;-84
2022/12/21 08:28:33;;;;;;;;;;;;;;;20.38;21.58;99693.16;5052400;28;20414;-79
2022/12/21 08:31:02;;;;;;;;;;;;;;;20.47;21.27;99690.53;5052427;28;19921;-79
2022/12/21 08:33:27;;;;;;;;;;;;;;;20.53;21.42;99692.56;5034113;28;19939;-80
2022/12/21 08:35:53;;;;;;;;;;;;;;;20.57;21.47;99691.25;5034917;28;20376;-80
2022/12/21 08:38:18;;;;;;;;;;;;;;;20.65;21.26;99686.00;5052769;28;19928;-82
2022/12/21 08:40:43;;;;;;;;;;;;;;;20.69;21.04;99682.06;5052142;28;19967;-81
2022/12/21 08:43:09;;;;;;;;;;;;;;;20.69;21.01;99666.13;5034765;28;20319;-80
2022/12/21 08:45:34;;;;;;;;;;;;;;;20.72;21.22;99670.31;5052349;28;19924;-79
2022/12/21 08:48:00;;;;;;;;;;;;;;;20.85;20.99;99662.72;5052121;28;19917;-80
2022/12/21 08:50:25;;;;;;;;;;;;;;;20.93;21.07;99670.69;5052546;28;19990;-82
2022/12/21 08:52:50;;;;;;;;;;;;;;;21.05;20.87;99654.50;5034844;28;19959;-81
2022/12/21 08:55:15;;;;;;;;;;;;;;;21.19;20.60;99645.03;5052427;28;19959;-80
2022/12/21 08:57:41;;;;;;;;;;;;;;;21.36;20.66;99649.38;5035817;28;19917;-82
2022/12/21 09:00:09;;;;;;;;;;;;;;;21.53;20.26;99652.91;5021596;28;19924;-82
2022/12/21 09:02:35;;;;;;;;;;;;;;;21.73;19.95;99644.59;5038593;28;20291;-81
2022/12/21 09:05:00;;;;;;;;;;;;;;;22.05;19.37;99651.72;5038212;28;19917;-79
2022/12/21 09:07:25;;;;;;;;;;;;;;;22.23;19.25;99646.16;5055972;28;20276;-79
2022/12/21 09:09:51;;;;;;;;;;;;;;;22.30;19.45;99649.03;5056083;28;19940;-80
2022/12/21 09:12:16;;;;;;;;;;;;;;;22.35;19.31;99642.19;5055913;28;19917;-80
2022/12/21 09:14:42;;;;;;;;;;;;;;;22.42;19.13;99637.00;5055871;28;19939;-80
2022/12/21 09:17:07;;;;;;;;;;;;;;;22.50;19.04;99633.47;5055634;28;20296;-80
2022/12/21 09:19:32;;;;;;;;;;;;;;;22.57;18.93;99621.16;5038299;28;19917;-80
2022/12/21 09:21:58;;;;;;;;;;;;;;;22.70;18.80;99626.75;5038007;28;19942;-81
2022/12/21 09:24:23;;;;;;;;;;;;;;;22.81;18.73;99614.06;5037755;28;20368;-80
2022/12/21 09:26:49;;;;;;;;;;;;;;;22.87;18.22;99608.84;5038205;28;20011;-81
2022/12/21 09:29:14;;;;;;;;;;;;;;;22.97;18.51;99605.97;5038093;28;20347;-80
2022/12/21 09:31:40;;;;;;;;;;;;;;;23.14;18.26;99608.56;5037794;28;20406;-80
2022/12/21 09:34:05;;;;;;;;;;;;;;;23.27;18.41;99600.78;5037251;28;20023;-81
2022/12/21 09:36:32;;;;;;;;;;;;;;;23.70;18.00;99598.41;5037822;28;19927;-82
2022/12/21 09:38:57;;;;;;;;;;;;;;;24.41;17.46;99597.19;5021338;28;19967;-82
2022/12/21 09:41:29;;;;;;;;;;;;;;;25.22;16.44;99589.06;5037190;28;19982;-82
2022/12/21 09:44:13;;;;;;;;;;;;;;;25.86;15.71;99590.84;5037659;28;20378;-82
2022/12/21 09:46:39;;;;;;;;;;;;;;;26.78;15.11;99580.00;5055173;28;19917;-82
2022/12/21 09:49:05;;;;;;;;;;;;;;;27.54;14.39;99584.22;5037431;28;19974;-83
2022/12/21 09:51:31;;;;;;;;;;;;;;;28.42;13.54;99586.50;5037229;28;19979;-84
2022/12/21 09:54:06;;;;;;;;;;;;;;;28.83;13.35;99577.25;5037285;28;19921;-83
2022/12/21 09:56:32;;;;;;;;;;;;;;;29.37;12.84;99566.13;5037268;28;19994;-83
2022/12/21 09:58:59;;;;;;;;;;;;;;;29.71;12.42;99570.16;5036937;28;19921;-81
2022/12/21 10:01:32;;;;;;;;;;;;;;;30.10;12.58;99576.19;5037379;28;19916;-82
2022/12/21 10:04:00;;;;;;;;;;;;;;;30.37;12.19;99575.06;5036876;28;20008;-82
2022/12/21 10:07:01;;;;;;;;;;;;;;;30.44;12.28;99565.88;5054745;28;20387;-81
2022/12/21 10:09:35;;;;;;;;;;;;;;;30.95;11.78;99561.00;4973503;28;19982;-83
2022/12/21 10:12:13;;;;;;;;;;;;;;;31.18;11.74;99554.84;4974036;28;19918;-81
2022/12/21 10:14:42;;;;;;;;;;;;;;;31.26;11.82;99551.00;4973896;28;19957;-79
2022/12/21 10:17:14;;;;;;;;;;;;;;;31.33;11.39;99545.53;4974042;28;19918;-80
2022/12/21 10:19:46;;;;;;;;;;;;;;;31.01;11.72;99537.72;4974005;28;19926;-81
2022/12/21 10:22:25;;;;;;;;;;;;;;;30.16;12.01;99538.63;4973632;28;19950;-82
2022/12/21 10:24:54;;;;;;;;;;;;;;;29.29;12.97;99534.13;4974039;28;19918;-81
2022/12/21 10:27:40;;;;;;;;;;;;;;;28.40;13.55;99531.38;4974158;28;19922;-83
2022/12/21 10:30:05;;;;;;;;;;;;;;;27.49;14.46;99523.16;4973866;28;19918;-81
2022/12/21 10:32:31;;;;;;;;;;;;;;;26.71;14.83;99521.88;4973580;28;19973;-82
2022/12/21 10:34:57;;;;;;;;;;;;;;;26.13;15.74;99519.59;4957559;28;19973;-83
2022/12/21 10:37:22;;;;;;;;;;;;;;;25.50;16.01;99518.81;4957685;28;19926;-82
2022/12/21 10:39:54;;;;;;;;;;;;;;;24.87;16.69;99509.63;4973937;28;19977;-82
2022/12/21 10:42:26;;;;;;;;;;;;;;;24.18;17.37;99507.44;4977713;28;19922;-83
2022/12/21 10:44:51;;;;;;;;;;;;;;;23.64;17.67;99503.19;5054251;28;20296;-83
2022/12/21 10:47:20;;;;;;;;;;;;;;;23.20;18.45;99511.94;5054856;28;19917;-83
2022/12/21 10:50:06;;;;;;;;;;;;;;;22.74;18.78;99512.81;5019913;28;19916;-83
2022/12/21 10:52:38;;;;;;;;;;;;;;;22.24;19.42;99498.91;5022569;28;20315;-83
2022/12/21 10:55:04;;;;;;;;;;;;;;;21.86;19.72;99491.59;5054422;28;19921;-83
2022/12/21 10:57:32;;;;;;;;;;;;;;;21.50;20.33;99499.19;5053920;28;19921;-84
2022/12/21 11:00:03;;;;;;;;;;;;;;;21.18;20.43;99494.72;5036793;28;19917;-83
2022/12/21 11:02:35;;;;;;;;;;;;;;;20.92;20.73;99501.84;5019270;28;19916;-83
2022/12/21 11:05:01;;;;;;;;;;;;;;;20.62;21.25;99497.97;5036192;28;20453;-81
2022/12/21 11:07:28;;;;;;;;;;;;;;;20.35;21.35;99484.00;5036205;28;19967;-81
2022/12/21 11:09:57;;;;;;;;;;;;;;;20.12;21.61;99490.88;5053699;28;19917;-80
2022/12/21 11:12:22;;;;;;;;;;;;;;;19.77;22.06;99485.59;5053769;28;20062;-80
2022/12/21 11:14:48;;;;;;;;;;;;;;;19.57;22.45;99492.09;5035902;28;19948;-81
2022/12/21 11:17:23;;;;;;;;;;;;;;;19.36;22.61;99485.34;5019382;28;20357;-80
2022/12/21 11:19:49;;;;;;;;;;;;;;;19.23;22.93;99484.91;5018797;28;19939;-81
2022/12/21 11:22:15;;;;;;;;;;;;;;;19.03;23.30;99486.91;5036054;28;19921;-80
2022/12/21 11:24:41;;;;;;;;;;;;;;;18.77;23.74;99491.13;5019974;28;19921;-79
2022/12/21 11:27:22;;;;;;;;;;;;;;;18.66;24.10;99478.16;5035354;28;19917;-82
2022/12/21 11:29:51;;;;;;;;;;;;;;;18.42;24.59;99481.34;5053438;28;19917;-82
2022/12/21 11:32:16;;;;;;;;;;;;;;;18.30;24.44;99479.94;5035487;28;19920;-82
2022/12/21 11:34:41;;;;;;;;;;;;;;;18.16;24.83;99479.44;5018101;28;19917;-81
2022/12/21 11:37:21;;;;;;;;;;;;;;;18.02;25.24;99480.75;5052585;28;19963;-83
2022/12/21 11:39:46;;;;;;;;;;;;;;;17.83;25.33;99479.00;5035550;28;20315;-83
2022/12/21 11:42:16;;;;;;;;;;;;;;;17.76;25.52;99482.38;5053221;28;19916;-81
2022/12/21 11:44:41;;;;;;;;;;;;;;;17.60;25.54;99491.75;5035649;28;19940;-82
2022/12/21 11:47:15;;;;;;;;;;;;;;;17.44;25.79;99481.78;5052740;28;20465;-81
2022/12/21 11:49:47;;;;;;;;;;;;;;;17.29;26.15;99480.56;5053186;28;19921;-83
2022/12/21 11:52:34;;;;;;;;;;;;;;;17.11;26.57;99473.38;5053274;28;19975;-83
2022/12/21 11:55:09;;;;;;;;;;;;;;;16.98;26.91;99472.81;5034941;28;19998;-83
2022/12/21 11:57:41;;;;;;;;;;;;;;;16.68;27.18;99474.59;5034338;28;19972;-82
2022/12/21 12:00:06;;;;;;;;;;;;;;;16.59;27.49;99462.28;5034687;28;19917;-82
2022/12/21 12:02:32;;;;;;;;;;;;;;;16.43;27.81;99460.16;5052811;28;20437;-82
2022/12/21 12:05:15;;;;;;;;;;;;;;;16.22;28.17;99462.91;5052650;28;19924;-83
2022/12/21 12:07:49;;;;;;;;;;;;;;;16.06;28.32;99458.97;5052444;28;19959;-83
2022/12/21 12:10:21;;;;;;;;;;;;;;;15.89;28.69;99455.22;5034454;28;19971;-83
2022/12/21 12:13:01;;;;;;;;;;;;;;;15.57;28.98;99450.03;5052812;28;20390;-83
2022/12/21 12:15:30;;;;;;;;;;;;;;;15.47;28.99;99451.81;5052582;28;19997;-82
2022/12/21 12:18:01;;;;;;;;;;;;;;;15.33;29.16;99445.09;5034836;28;19939;-82
2022/12/21 12:20:29;;;;;;;;;;;;;;;15.09;29.66;99445.38;5052434;28;20019;-82
2022/12/21 12:22:58;;;;;;;;;;;;;;;14.92;29.86;99439.72;5034623;28;19921;-82
2022/12/21 12:25:43;;;;;;;;;;;;;;;14.76;29.91;99440.16;5052161;28;19925;-82
2022/12/21 12:28:14;;;;;;;;;;;;;;;14.58;30.28;99441.63;5051520;28;19917;-83
2022/12/21 12:30:40;;;;;;;;;;;;;;;14.52;30.35;99435.09;5051902;28;19987;-83
2022/12/21 12:33:08;;;;;;;;;;;;;;;14.38;30.62;99430.13;5054500;28;20407;-82
2022/12/21 12:35:40;;;;;;;;;;;;;;;14.24;30.84;99433.84;5056106;28;20016;-83
2022/12/21 12:38:09;;;;;;;;;;;;;;;14.13;31.04;99433.88;5038164;28;19928;-84
2022/12/21 12:40:37;;;;;;;;;;;;;;;13.93;31.27;99433.66;5056610;28;19923;-83
2022/12/21 12:43:13;;;;;;;;;;;;;;;13.81;31.44;99432.84;5038447;28;19917;-82
2022/12/21 12:45:38;;;;;;;;;;;;;;;13.68;31.87;99433.00;5038460;28;19957;-82
2022/12/21 12:48:09;;;;;;;;;;;;;;;13.58;32.21;99442.50;5055833;28;20510;-83
2022/12/21 12:50:43;;;;;;;;;;;;;;;13.41;32.24;99442.97;5056496;28;19923;-82
2022/12/21 12:53:27;;;;;;;;;;;;;;;13.31;32.62;99434.97;5038183;28;19931;-82
2022/12/21 12:55:59;;;;;;;;;;;;;;;13.18;32.72;99433.25;5056081;28;19956;-83
2022/12/21 12:58:27;;;;;;;;;;;;;;;13.08;32.92;99432.31;5055845;28;19917;-82
2022/12/21 13:00:52;;;;;;;;;;;;;;;12.95;33.00;99434.16;5055679;28;19916;-83
2022/12/21 13:03:30;;;;;;;;;;;;;;;12.87;33.23;99434.75;5038117;28;19917;-83
2022/12/21 13:06:02;;;;;;;;;;;;;;;12.75;33.52;99439.13;5037935;28;19917;-83